createdAt,value
2022-11-20T00:01:26.135Z,101213.34
2022-11-20T00:03:54.074Z,101214.22
2022-11-20T00:06:21.603Z,101216.13
2022-11-20T00:08:48.662Z,101203.69
2022-11-20T00:11:20.837Z,101206.00
2022-11-20T00:13:49.202Z,101202.41
2022-11-20T00:16:18.309Z,101203.03
2022-11-20T00:18:45.681Z,101194.59
2022-11-20T00:21:18.043Z,101198.19
2022-11-20T00:23:44.924Z,101199.81
2022-11-20T00:26:14.543Z,101197.78
2022-11-20T00:28:41.586Z,101205.69
2022-11-20T00:31:14.107Z,101202.97
2022-11-20T00:33:40.870Z,101202.94
2022-11-20T00:36:09.992Z,101206.28
2022-11-20T00:38:36.496Z,101197.66
2022-11-20T00:41:06.163Z,101198.94
2022-11-20T00:43:32.940Z,101206.34
2022-11-20T00:45:59.864Z,101195.03
2022-11-20T00:48:26.265Z,101202.94
2022-11-20T00:50:53.183Z,101201.16
2022-11-20T00:53:19.718Z,101199.63
2022-11-20T00:55:56.636Z,101197.69
2022-11-20T00:58:24.116Z,101192.06
2022-11-20T01:00:50.736Z,101196.13
2022-11-20T01:03:20.536Z,101198.13
2022-11-20T01:05:50.506Z,101194.78
2022-11-20T01:08:17.047Z,101196.47
2022-11-20T01:10:43.374Z,101192.84
2022-11-20T01:13:28.740Z,101196.94
2022-11-20T01:15:55.063Z,101188.53
2022-11-20T01:18:21.712Z,101187.31
2022-11-20T01:20:48.049Z,101175.97
2022-11-20T01:23:14.594Z,101179.31
2022-11-20T01:25:40.918Z,101176.50
2022-11-20T01:28:07.287Z,101173.44
2022-11-20T01:30:33.620Z,101174.25
2022-11-20T01:33:00.121Z,101173.25
2022-11-20T01:35:26.450Z,101175.91
2022-11-20T01:37:52.846Z,101163.94
2022-11-20T01:40:19.271Z,101161.31
2022-11-20T01:43:11.553Z,101164.28
2022-11-20T01:45:58.752Z,101157.97
2022-11-20T01:48:30.846Z,101139.91
2022-11-20T01:50:58.826Z,101140.38
2022-11-20T01:53:31.143Z,101138.44
2022-11-20T01:56:01.068Z,101141.31
2022-11-20T01:58:33.127Z,101138.38
2022-11-20T02:00:59.591Z,101145.50
2022-11-20T02:03:27.199Z,101141.16
2022-11-20T02:06:08.679Z,101140.09
2022-11-20T02:08:36.396Z,101142.81
2022-11-20T02:11:02.762Z,101135.97
2022-11-20T02:13:44.068Z,101134.38
2022-11-20T02:16:26.535Z,101129.06
2022-11-20T02:18:55.795Z,101130.50
2022-11-20T02:21:35.640Z,101130.69
2022-11-20T02:24:08.661Z,101126.81
2022-11-20T02:26:42.011Z,101129.00
2022-11-20T02:29:08.513Z,101121.72
2022-11-20T02:31:37.293Z,101124.19
2022-11-20T02:34:03.934Z,101119.88
2022-11-20T02:36:33.249Z,101125.22
2022-11-20T02:39:00.033Z,101115.22
2022-11-20T02:41:37.836Z,101121.56
2022-11-20T02:44:05.175Z,101120.78
2022-11-20T02:46:32.219Z,101117.25
2022-11-20T02:48:58.678Z,101115.50
2022-11-20T02:51:25.355Z,101111.34
2022-11-20T02:53:52.048Z,101106.81
2022-11-20T02:56:18.519Z,101107.84
2022-11-20T02:58:44.879Z,101107.16
2022-11-20T03:01:11.252Z,101108.38
2022-11-20T03:03:37.738Z,101104.13
2022-11-20T03:06:04.180Z,101118.47
2022-11-20T03:08:30.712Z,101108.00
2022-11-20T03:10:57.083Z,101102.47
2022-11-20T03:13:23.439Z,101110.09
2022-11-20T03:15:49.757Z,101110.03
2022-11-20T03:18:16.377Z,101095.28
2022-11-20T03:20:42.699Z,101096.41
2022-11-20T03:23:09.323Z,101092.63
2022-11-20T03:25:36.439Z,101099.91
2022-11-20T03:28:03.006Z,101100.56
2022-11-20T03:30:30.920Z,101089.88
2022-11-20T03:32:57.728Z,101098.66
2022-11-20T03:35:24.060Z,101097.63
2022-11-20T03:37:50.601Z,101095.00
2022-11-20T03:40:16.928Z,101096.50
2022-11-20T03:42:46.215Z,101091.13
2022-11-20T03:45:14.296Z,101092.13
2022-11-20T03:47:40.826Z,101088.50
2022-11-20T03:50:07.791Z,101080.59
2022-11-20T03:52:34.109Z,101079.19
2022-11-20T03:55:00.676Z,101077.16
2022-11-20T03:57:27.003Z,101073.81
2022-11-20T03:59:53.579Z,101079.38
2022-11-20T04:02:19.953Z,101079.38
2022-11-20T04:04:46.506Z,101074.97
2022-11-20T04:07:12.861Z,101073.88
2022-11-20T04:09:39.401Z,101070.91
2022-11-20T04:12:05.781Z,101063.19
2022-11-20T04:14:32.307Z,101074.44
2022-11-20T04:16:58.837Z,101073.53
2022-11-20T04:19:25.154Z,101069.06
2022-11-20T04:21:51.520Z,101069.34
2022-11-20T04:24:18.093Z,101067.56
2022-11-20T04:26:44.416Z,101063.34
2022-11-20T04:29:12.482Z,101058.59
2022-11-20T04:31:38.872Z,101064.00
2022-11-20T04:34:07.374Z,101057.72
2022-11-20T04:36:34.597Z,101061.69
2022-11-20T04:39:04.009Z,101060.31
2022-11-20T04:41:33.418Z,101060.09
2022-11-20T04:44:04.127Z,101054.34
2022-11-20T04:46:33.605Z,101059.78
2022-11-20T04:49:00.409Z,101065.28
2022-11-20T04:51:27.555Z,101062.38
2022-11-20T04:53:54.455Z,101048.84
2022-11-20T04:56:20.811Z,101049.19
2022-11-20T04:58:47.162Z,101045.25
2022-11-20T05:01:19.088Z,101052.81
2022-11-20T05:03:46.347Z,101048.72
2022-11-20T05:06:14.933Z,101050.44
2022-11-20T05:08:41.948Z,101048.31
2022-11-20T05:11:14.009Z,101037.84
2022-11-20T05:13:41.464Z,101037.00
2022-11-20T05:16:14.279Z,101038.19
2022-11-20T05:18:42.045Z,101036.88
2022-11-20T05:21:09.687Z,101044.38
2022-11-20T05:23:36.783Z,101038.28
2022-11-20T05:26:03.897Z,101038.53
2022-11-20T05:28:31.423Z,101037.31
2022-11-20T05:31:05.393Z,101033.09
2022-11-20T05:33:31.760Z,101029.66
2022-11-20T05:36:01.259Z,101030.63
2022-11-20T05:38:28.070Z,101032.28
2022-11-20T05:40:54.466Z,101023.06
2022-11-20T05:43:20.831Z,101026.00
2022-11-20T05:45:55.943Z,101023.16
2022-11-20T05:48:22.319Z,101014.13
2022-11-20T05:50:49.331Z,101011.72
2022-11-20T05:53:15.747Z,101011.81
2022-11-20T05:55:42.074Z,101015.41
2022-11-20T05:58:08.446Z,101017.75
2022-11-20T06:00:34.811Z,101008.97
2022-11-20T06:03:01.349Z,101010.38
2022-11-20T06:05:27.699Z,101007.03
2022-11-20T06:07:54.066Z,101009.28
2022-11-20T06:10:20.447Z,101011.88
2022-11-20T06:12:47.004Z,101007.91
2022-11-20T06:15:13.369Z,101010.41
2022-11-20T06:17:39.728Z,101007.56
2022-11-20T06:20:06.800Z,101004.50
2022-11-20T06:22:33.456Z,101006.38
2022-11-20T06:24:59.776Z,101003.72
2022-11-20T06:27:26.140Z,101009.88
2022-11-20T06:29:52.455Z,101004.28
2022-11-20T06:32:18.970Z,101002.75
2022-11-20T06:34:45.303Z,100995.78
2022-11-20T06:37:11.653Z,100996.56
2022-11-20T06:39:37.974Z,101005.47
2022-11-20T06:42:04.511Z,100989.88
2022-11-20T06:44:30.847Z,100997.16
2022-11-20T06:46:57.490Z,100996.22
2022-11-20T06:49:24.034Z,101010.19
2022-11-20T06:51:50.882Z,101014.19
2022-11-20T06:54:17.193Z,101020.31
2022-11-20T06:56:47.021Z,101017.53
2022-11-20T06:59:13.389Z,101012.41
2022-11-20T07:01:40.047Z,101014.44
2022-11-20T07:04:06.366Z,101009.59
2022-11-20T07:06:32.927Z,101007.50
2022-11-20T07:08:59.255Z,101008.88
2022-11-20T07:11:25.795Z,100998.28
2022-11-20T07:13:52.115Z,100994.44
2022-11-20T07:16:18.967Z,100996.25
2022-11-20T07:18:50.163Z,100997.63
2022-11-20T07:21:17.789Z,100994.91
2022-11-20T07:23:44.153Z,100997.31
2022-11-20T07:26:12.084Z,100994.28
2022-11-20T07:28:38.846Z,100999.56
2022-11-20T07:31:07.823Z,100994.03
2022-11-20T07:33:34.426Z,100991.13
2022-11-20T07:36:09.978Z,101004.72
2022-11-20T07:38:37.749Z,101002.78
2022-11-20T07:41:04.384Z,101002.53
2022-11-20T07:43:31.218Z,101000.72
2022-11-20T07:45:59.036Z,100997.22
2022-11-20T07:48:25.790Z,101008.31
2022-11-20T07:50:55.668Z,101006.38
2022-11-20T07:53:22.662Z,101012.13
2022-11-20T07:55:49.338Z,101007.00
2022-11-20T07:58:15.721Z,101004.00
2022-11-20T08:00:42.257Z,100999.03
2022-11-20T08:03:08.617Z,100996.91
2022-11-20T08:05:35.226Z,100991.03
2022-11-20T08:08:01.554Z,100995.09
2022-11-20T08:10:28.150Z,100992.47
2022-11-20T08:13:13.270Z,100999.63
2022-11-20T08:15:40.965Z,100997.25
2022-11-20T08:21:02.626Z,101000.44
2022-11-20T08:23:28.985Z,101000.63
2022-11-20T08:25:55.501Z,100998.00
2022-11-20T08:28:22.677Z,101002.44
2022-11-20T08:30:50.880Z,101003.78
2022-11-20T08:33:18.306Z,101004.72
2022-11-20T08:35:44.828Z,101004.38
2022-11-20T08:38:11.184Z,101008.78
2022-11-20T08:40:37.529Z,101010.72
2022-11-20T08:43:03.894Z,100998.22
2022-11-20T08:45:34.288Z,101011.03
2022-11-20T08:48:05.316Z,101005.97
2022-11-20T08:50:33.210Z,101002.53
2022-11-20T08:53:06.335Z,101005.38
2022-11-20T08:55:32.975Z,101007.44
2022-11-20T08:57:59.536Z,101014.63
2022-11-20T09:00:25.913Z,101016.16
2022-11-20T09:02:53.173Z,101022.84
2022-11-20T09:05:19.495Z,101015.13
2022-11-20T09:07:46.022Z,101016.41
2022-11-20T09:10:27.862Z,101021.59
2022-11-20T09:12:56.189Z,101017.63
2022-11-20T09:15:22.946Z,101015.44
2022-11-20T09:17:56.681Z,101017.81
2022-11-20T09:20:23.602Z,101020.63
2022-11-20T09:22:50.132Z,101018.44
2022-11-20T09:25:16.666Z,101011.06
2022-11-20T09:27:44.998Z,101012.03
2022-11-20T09:30:12.592Z,101012.66
2022-11-20T09:32:42.300Z,101015.66
2022-11-20T09:35:09.465Z,101021.97
2022-11-20T09:37:36.000Z,101017.28
2022-11-20T09:40:02.342Z,101020.31
2022-11-20T09:42:38.169Z,101017.66
2022-11-20T09:45:42.030Z,101022.38
2022-11-20T09:48:36.951Z,101022.72
2022-11-20T09:51:33.700Z,101011.69
2022-11-20T09:54:34.202Z,101013.94
2022-11-20T09:57:04.131Z,101012.84
2022-11-20T09:59:40.843Z,101003.16
2022-11-20T10:02:27.680Z,101001.16
2022-11-20T10:05:00.287Z,101003.28
2022-11-20T10:07:43.909Z,100998.34
2022-11-20T10:10:43.754Z,100998.31
2022-11-20T10:13:18.658Z,100998.34
2022-11-20T10:15:50.970Z,101005.13
2022-11-20T10:18:59.140Z,100998.78
2022-11-20T10:21:44.198Z,100997.22
2022-11-20T10:24:38.329Z,100991.50
2022-11-20T10:27:47.201Z,100992.47
2022-11-20T10:30:16.629Z,100984.88
2022-11-20T10:32:53.383Z,100984.16
2022-11-20T10:35:28.923Z,100982.09
2022-11-20T10:38:06.608Z,100975.44
2022-11-20T10:40:41.620Z,100972.19
2022-11-20T10:43:18.741Z,100978.75
2022-11-20T10:45:58.365Z,100972.44
2022-11-20T10:48:26.885Z,100963.75
2022-11-20T10:51:22.031Z,100971.41
2022-11-20T10:53:57.709Z,100966.13
2022-11-20T10:56:49.858Z,100968.06
2022-11-20T10:59:52.398Z,100956.16
2022-11-20T11:02:21.861Z,100956.31
2022-11-20T11:04:51.043Z,100950.69
2022-11-20T11:07:25.592Z,100950.81
2022-11-20T11:09:57.206Z,100957.25
2022-11-20T11:12:27.016Z,100960.84
2022-11-20T11:14:55.624Z,100956.13
2022-11-20T11:17:31.085Z,100949.72
2022-11-20T11:20:03.987Z,100939.25
2022-11-20T11:22:33.008Z,100943.25
2022-11-20T11:25:00.152Z,100937.06
2022-11-20T11:27:26.694Z,100935.22
2022-11-20T11:30:04.818Z,100944.47
2022-11-20T11:32:31.177Z,100949.72
2022-11-20T11:35:02.175Z,100947.25
2022-11-20T11:37:35.078Z,100943.72
2022-11-20T11:40:23.392Z,100944.50
2022-11-20T11:42:55.493Z,100939.66
2022-11-20T11:45:22.585Z,100938.44
2022-11-20T11:47:49.964Z,100938.97
2022-11-20T11:50:20.145Z,100934.88
2022-11-20T11:53:07.160Z,100935.69
2022-11-20T11:55:50.281Z,100943.84
2022-11-20T11:58:45.189Z,100932.78
2022-11-20T12:01:38.893Z,100936.97
2022-11-20T12:04:37.372Z,100931.31
2022-11-20T12:07:45.487Z,100934.84
2022-11-20T12:10:17.772Z,100930.38
2022-11-20T12:12:47.970Z,100939.50
2022-11-20T12:15:32.769Z,100926.81
2022-11-20T12:17:59.258Z,100930.94
2022-11-20T12:20:32.850Z,100934.97
2022-11-20T12:23:10.699Z,100935.66
2022-11-20T12:25:39.525Z,100921.53
2022-11-20T12:28:37.439Z,100913.88
2022-11-20T12:31:32.524Z,100920.66
2022-11-20T12:34:14.742Z,100912.31
2022-11-20T12:36:55.006Z,100911.16
2022-11-20T12:39:35.421Z,100916.53
2022-11-20T12:42:37.609Z,100910.13
2022-11-20T12:45:44.399Z,100910.28
2022-11-20T12:48:46.545Z,100913.47
2022-11-20T12:51:31.630Z,100914.13
2022-11-20T12:54:16.738Z,100907.78
2022-11-20T12:56:57.272Z,100909.31
2022-11-20T12:59:45.066Z,100902.75
2022-11-20T13:02:30.384Z,100906.72
2022-11-20T13:05:31.013Z,100900.63
2022-11-20T13:07:57.737Z,100886.00
2022-11-20T13:10:45.797Z,100896.81
2022-11-20T13:13:32.348Z,100890.97
2022-11-20T13:16:06.926Z,100894.03
2022-11-20T13:18:40.476Z,100892.75
2022-11-20T13:21:20.204Z,100896.81
2022-11-20T13:23:47.064Z,100894.75
2022-11-20T13:26:31.747Z,100890.25
2022-11-20T13:29:21.244Z,100893.22
2022-11-20T13:31:49.586Z,100888.69
2022-11-20T13:34:27.026Z,100882.22
2022-11-20T13:37:01.327Z,100879.31
2022-11-20T13:39:29.818Z,100880.31
2022-11-20T13:42:19.752Z,100875.69
2022-11-20T13:44:51.733Z,100867.44
2022-11-20T13:47:26.475Z,100872.50
2022-11-20T13:49:55.432Z,100867.47
2022-11-20T13:52:59.165Z,100866.84
2022-11-20T13:55:47.769Z,100863.34
2022-11-20T13:58:33.533Z,100862.84
2022-11-20T14:01:11.688Z,100861.53
2022-11-20T14:06:35.458Z,100854.91
2022-11-20T14:09:02.033Z,100848.03
2022-11-20T14:11:30.488Z,100853.56
2022-11-20T14:14:04.260Z,100856.34
2022-11-20T14:16:34.158Z,100852.75
2022-11-20T14:19:20.440Z,100846.69
2022-11-20T14:21:48.349Z,100844.78
2022-11-20T14:24:19.794Z,100853.28
2022-11-20T14:26:47.253Z,100853.34
2022-11-20T14:29:19.378Z,100850.38
2022-11-20T14:31:52.663Z,100845.78
2022-11-20T14:34:24.366Z,100847.09
2022-11-20T14:36:58.190Z,100843.81
2022-11-20T14:39:31.807Z,100848.13
2022-11-20T14:41:58.337Z,100837.25
2022-11-20T14:44:32.911Z,100846.75
2022-11-20T14:47:02.107Z,100845.63
2022-11-20T14:49:31.692Z,100839.22
2022-11-20T14:52:02.478Z,100841.06
2022-11-20T14:54:30.121Z,100842.13
2022-11-20T14:56:59.156Z,100836.66
2022-11-20T14:59:27.303Z,100837.31
2022-11-20T15:01:58.560Z,100835.78
2022-11-20T15:04:25.531Z,100833.81
2022-11-20T15:06:55.746Z,100829.06
2022-11-20T15:09:22.419Z,100832.72
2022-11-20T15:12:02.973Z,100828.19
2022-11-20T15:14:33.595Z,100826.22
2022-11-20T15:17:00.032Z,100825.13
2022-11-20T15:19:27.844Z,100824.94
2022-11-20T15:21:54.530Z,100820.97
2022-11-20T15:24:21.579Z,100815.78
2022-11-20T15:26:48.717Z,100820.38
2022-11-20T15:29:20.396Z,100810.44
2022-11-20T15:31:46.752Z,100814.81
2022-11-20T15:34:16.641Z,100807.41
2022-11-20T15:36:44.495Z,100805.06
2022-11-20T15:39:12.726Z,100807.47
2022-11-20T15:41:39.491Z,100808.06
2022-11-20T15:44:06.336Z,100798.59
2022-11-20T15:46:39.266Z,100791.53
2022-11-20T15:49:06.386Z,100802.69
2022-11-20T15:51:35.513Z,100804.56
2022-11-20T15:54:04.366Z,100802.03
2022-11-20T15:56:30.712Z,100802.06
2022-11-20T15:58:57.107Z,100798.09
2022-11-20T16:01:23.675Z,100802.69
2022-11-20T16:03:50.095Z,100797.19
2022-11-20T16:06:17.193Z,100786.44
2022-11-20T16:08:43.945Z,100782.38
2022-11-20T16:11:14.745Z,100780.41
2022-11-20T16:14:00.575Z,100780.84
2022-11-20T16:16:31.130Z,100784.56
2022-11-20T16:18:58.122Z,100781.47
2022-11-20T16:21:33.740Z,100778.91
2022-11-20T16:24:01.915Z,100770.50
2022-11-20T16:26:28.919Z,100771.16
2022-11-20T16:28:55.930Z,100775.03
2022-11-20T16:31:22.893Z,100771.69
2022-11-20T16:33:52.966Z,100767.22
2022-11-20T16:36:21.199Z,100768.19
2022-11-20T16:38:52.917Z,100757.75
2022-11-20T16:41:19.244Z,100763.81
2022-11-20T16:43:54.741Z,100770.22
2022-11-20T16:46:23.180Z,100767.50
2022-11-20T16:49:04.749Z,100768.47
2022-11-20T16:51:32.539Z,100765.72
2022-11-20T16:54:01.837Z,100765.47
2022-11-20T16:56:28.367Z,100760.13
2022-11-20T16:58:56.947Z,100752.97
2022-11-20T17:01:24.824Z,100765.19
2022-11-20T17:03:57.051Z,100767.38
2022-11-20T17:06:26.776Z,100764.41
2022-11-20T17:08:55.414Z,100760.75
2022-11-20T17:11:22.089Z,100763.00
2022-11-20T17:13:49.213Z,100751.97
2022-11-20T17:16:18.285Z,100754.41
2022-11-20T17:18:44.788Z,100756.19
2022-11-20T17:21:11.610Z,100748.00
2022-11-20T17:23:40.404Z,100757.97
2022-11-20T17:26:14.312Z,100753.47
2022-11-20T17:28:41.413Z,100753.00
2022-11-20T17:31:17.410Z,100753.03
2022-11-20T17:33:46.417Z,100752.09
2022-11-20T17:36:15.445Z,100740.94
2022-11-20T17:38:42.206Z,100746.09
2022-11-20T17:41:17.375Z,100747.69
2022-11-20T17:43:44.743Z,100753.66
2022-11-20T17:46:16.663Z,100750.81
2022-11-20T17:48:44.293Z,100748.75
2022-11-20T17:51:14.013Z,100742.59
2022-11-20T17:53:42.163Z,100743.81
2022-11-20T17:56:27.770Z,100751.94
2022-11-20T17:58:54.426Z,100742.59
2022-11-20T18:01:21.539Z,100753.50
2022-11-20T18:03:48.334Z,100751.69
2022-11-20T18:06:22.943Z,100744.34
2022-11-20T18:08:50.061Z,100746.78
2022-11-20T18:11:26.323Z,100745.47
2022-11-20T18:14:14.824Z,100755.69
2022-11-20T18:16:45.951Z,100741.41
2022-11-20T18:19:19.254Z,100734.91
2022-11-20T18:21:45.644Z,100746.44
2022-11-20T18:24:12.385Z,100747.59
2022-11-20T18:26:43.864Z,100748.56
2022-11-20T18:29:12.200Z,100748.34
2022-11-20T18:31:39.135Z,100739.03
2022-11-20T18:34:06.753Z,100744.66
2022-11-20T18:36:33.339Z,100748.34
2022-11-20T18:39:00.655Z,100747.50
2022-11-20T18:41:48.465Z,100746.72
2022-11-20T18:44:36.871Z,100739.41
2022-11-20T18:47:09.603Z,100734.31
2022-11-20T18:49:40.334Z,100735.47
2022-11-20T18:52:06.724Z,100739.44
2022-11-20T18:54:35.774Z,100726.94
2022-11-20T18:57:02.792Z,100725.09
2022-11-20T18:59:29.586Z,100729.06
2022-11-20T19:01:56.105Z,100726.81
2022-11-20T19:04:23.171Z,100718.59
2022-11-20T19:06:49.793Z,100725.53
2022-11-20T19:09:16.416Z,100716.06
2022-11-20T19:11:42.747Z,100715.03
2022-11-20T19:14:09.127Z,100710.13
2022-11-20T19:16:35.796Z,100701.03
2022-11-20T19:19:04.614Z,100698.72
2022-11-20T19:21:31.723Z,100705.06
2022-11-20T19:23:59.577Z,100695.47
2022-11-20T19:26:26.297Z,100692.91
2022-11-20T19:28:52.998Z,100695.50
2022-11-20T19:31:27.289Z,100689.38
2022-11-20T19:33:59.279Z,100680.03
2022-11-20T19:36:28.887Z,100683.25
2022-11-20T19:38:55.858Z,100678.72
2022-11-20T19:41:28.804Z,100667.44
2022-11-20T19:43:57.060Z,100669.66
2022-11-20T19:46:23.958Z,100665.06
2022-11-20T19:48:50.497Z,100663.28
2022-11-20T19:51:20.248Z,100657.94
2022-11-20T19:53:47.393Z,100664.38
2022-11-20T19:56:13.755Z,100657.41
2022-11-20T19:58:40.427Z,100655.50
2022-11-20T20:01:08.610Z,100646.91
2022-11-20T20:03:35.784Z,100650.22
2022-11-20T20:06:04.325Z,100647.69
2022-11-20T20:08:31.244Z,100641.34
2022-11-20T20:10:59.660Z,100647.69
2022-11-20T20:13:26.670Z,100641.88
2022-11-20T20:15:53.380Z,100635.59
2022-11-20T20:18:19.751Z,100630.91
2022-11-20T20:20:46.115Z,100632.31
2022-11-20T20:23:12.512Z,100628.41
2022-11-20T20:25:38.921Z,100621.59
2022-11-20T20:28:10.495Z,100636.91
2022-11-20T20:30:36.887Z,100631.97
2022-11-20T20:33:05.578Z,100632.19
2022-11-20T20:35:31.935Z,100632.81
2022-11-20T20:37:58.334Z,100634.81
2022-11-20T20:40:24.746Z,100623.78
2022-11-20T20:42:51.127Z,100620.31
2022-11-20T20:45:17.473Z,100624.56
2022-11-20T20:47:43.884Z,100620.47
2022-11-20T20:50:12.991Z,100623.63
2022-11-20T20:52:39.463Z,100625.91
2022-11-20T20:55:06.351Z,100619.53
2022-11-20T20:57:32.770Z,100613.53
2022-11-20T20:59:59.110Z,100619.31
2022-11-20T21:02:26.085Z,100621.34
2022-11-20T21:04:52.726Z,100626.44
2022-11-20T21:07:19.136Z,100613.81
2022-11-20T21:09:45.561Z,100613.81
2022-11-20T21:12:11.925Z,100614.72
2022-11-20T21:14:38.463Z,100609.72
2022-11-20T21:17:04.866Z,100614.28
2022-11-20T21:19:31.897Z,100609.09
2022-11-20T21:22:03.085Z,100608.78
2022-11-20T21:24:36.342Z,100608.81
2022-11-20T21:27:05.195Z,100605.41
2022-11-20T21:29:31.579Z,100612.50
2022-11-20T21:31:58.119Z,100609.94
2022-11-20T21:34:25.503Z,100615.19
2022-11-20T21:36:52.288Z,100607.16
2022-11-20T21:39:21.567Z,100613.47
2022-11-20T21:41:47.940Z,100608.72
2022-11-20T21:44:31.648Z,100597.84
2022-11-20T21:46:58.556Z,100594.00
2022-11-20T21:49:25.199Z,100592.59
2022-11-20T21:51:53.669Z,100586.38
2022-11-20T21:54:20.191Z,100584.44
2022-11-20T21:56:46.612Z,100580.69
2022-11-20T21:59:13.849Z,100575.06
2022-11-20T22:01:40.544Z,100577.19
2022-11-20T22:04:08.243Z,100579.63
2022-11-20T22:06:34.804Z,100577.59
2022-11-20T22:09:02.737Z,100572.31
2022-11-20T22:11:29.466Z,100570.69
2022-11-20T22:14:14.457Z,100565.59
2022-11-20T22:16:40.783Z,100564.28
2022-11-20T22:19:07.901Z,100557.59
2022-11-20T22:21:34.746Z,100556.03
2022-11-20T22:24:01.510Z,100544.47
2022-11-20T22:26:30.537Z,100543.50
2022-11-20T22:28:58.423Z,100543.06
2022-11-20T22:31:28.115Z,100548.78
2022-11-20T22:33:54.947Z,100547.84
2022-11-20T22:36:28.214Z,100550.59
2022-11-20T22:38:55.520Z,100551.50
2022-11-20T22:41:27.226Z,100559.06
2022-11-20T22:43:56.761Z,100556.53
2022-11-20T22:46:24.410Z,100559.22
2022-11-20T22:48:56.572Z,100551.72
2022-11-20T22:51:25.306Z,100556.22
2022-11-20T22:53:52.570Z,100549.72
2022-11-20T22:56:19.611Z,100553.41
2022-11-20T22:58:47.737Z,100552.50
2022-11-20T23:01:44.139Z,100557.09
2022-11-20T23:04:11.571Z,100553.09
2022-11-20T23:06:38.090Z,100553.94
2022-11-20T23:09:05.965Z,100555.84
2022-11-20T23:11:33.082Z,100547.84
2022-11-20T23:14:02.062Z,100543.75
2022-11-20T23:16:31.815Z,100543.94
2022-11-20T23:19:01.648Z,100547.75
2022-11-20T23:21:28.447Z,100538.59
2022-11-20T23:23:57.072Z,100535.44
2022-11-20T23:26:26.223Z,100539.94
2022-11-20T23:28:54.044Z,100539.31
2022-11-20T23:31:20.419Z,100539.66
2022-11-20T23:33:46.814Z,100533.31
2022-11-20T23:36:14.085Z,100539.97
2022-11-20T23:38:41.124Z,100536.84
2022-11-20T23:41:07.493Z,100528.75
2022-11-20T23:43:34.388Z,100533.91
2022-11-20T23:46:02.258Z,100527.69
2022-11-20T23:48:31.191Z,100528.63
2022-11-20T23:50:58.200Z,100518.44
2022-11-20T23:53:24.988Z,100516.81
2022-11-20T23:55:53.411Z,100517.88
2022-11-20T23:58:21.454Z,100517.84
